Current Conditions
Clear
Conditions



Pressure
29.92 (inHG) - 1013.22 (mb)
Visibility

9.9 (miles) - 16.0 (km)
Temperature
64  °F
Temperature
45  °F
Dewpoint
49  %
 Humidity
Wind Speed
10  mph
9  kts
16  km/h
4.5  m/s
Wind Direction
N
45°
E
90°
135°
S
180°
225°
W
270°
315°
 360°

Due North
Airport Data
KMYR
Myrtle Beach International Airport
Metar :KMYR 130756Z AUTO 36009KT 10SM CLR 18/07 A2992 RMK AO2 SLP131 T01780072
Tue 13th April 03:56 am
Raw Metar Info
Raw METAR is the most common format in the world for the transmission of observational weather data. It is highly standardized through the International Civil Aviation Organization (ICAO), which allows it to be understood throughout most of the world.
API Info
Data Provided by
https://www.checkwx.com/weather/KMYR

Aviation Weather providing METAR, TAF, AIRMET, SIGMET and OUTLOOK Weather Reports
© Info
CSS/SVG/PHP scripts were developed by weather34.com for use in the weather34 template © 2015-2021

Guide Info provided by Metar-Wikipedia